createdAt,value
2018-11-12T00:01:34.370Z,10.80
2018-11-12T00:04:03.094Z,11.00
2018-11-12T00:06:32.102Z,10.90
2018-11-12T00:09:00.837Z,10.90
2018-11-12T00:11:29.561Z,11.10
2018-11-12T00:13:58.393Z,11.20
2018-11-12T00:16:27.130Z,10.90
2018-11-12T00:18:55.878Z,11.40
2018-11-12T00:21:24.947Z,11.40
2018-11-12T00:23:53.811Z,11.30
2018-11-12T00:26:23.154Z,11.40
2018-11-12T00:28:51.975Z,11.50
2018-11-12T00:31:20.659Z,11.50
2018-11-12T00:33:50.407Z,11.60
2018-11-12T00:36:19.159Z,11.90
2018-11-12T00:38:47.927Z,12.00
2018-11-12T00:41:16.790Z,11.80
2018-11-12T00:43:45.593Z,11.50
2018-11-12T00:46:14.803Z,11.60
2018-11-12T00:48:43.758Z,11.40
2018-11-12T00:51:13.325Z,11.60
2018-11-12T00:53:42.109Z,11.30
2018-11-12T00:56:10.942Z,11.40
2018-11-12T00:58:39.833Z,11.50
2018-11-12T01:01:09.174Z,11.80
2018-11-12T01:03:37.917Z,11.70
2018-11-12T01:06:06.719Z,11.90
2018-11-12T01:08:35.829Z,12.30
2018-11-12T01:11:04.715Z,11.80
2018-11-12T01:13:33.609Z,11.50
2018-11-12T01:16:02.375Z,11.90
2018-11-12T01:18:31.103Z,12.00
2018-11-12T01:20:59.797Z,11.50
2018-11-12T01:23:28.445Z,12.00
2018-11-12T01:25:57.954Z,12.10
2018-11-12T01:28:26.714Z,12.80
2018-11-12T01:31:00.949Z,12.90
2018-11-12T01:33:29.699Z,12.60
2018-11-12T01:35:58.470Z,12.90
2018-11-12T01:38:27.234Z,12.40
2018-11-12T01:40:55.942Z,11.80
2018-11-12T01:43:24.730Z,12.30
2018-11-12T01:45:53.497Z,12.30
2018-11-12T01:48:22.306Z,12.00
2018-11-12T01:50:51.089Z,12.20
2018-11-12T01:53:20.430Z,12.10
2018-11-12T01:55:49.269Z,12.40
2018-11-12T01:58:18.382Z,12.50
2018-11-12T02:00:47.230Z,12.40
2018-11-12T02:03:15.941Z,12.40
2018-11-12T02:05:45.422Z,12.00
2018-11-12T02:08:14.113Z,11.90
2018-11-12T02:10:42.817Z,12.00
2018-11-12T02:13:11.599Z,11.80
2018-11-12T02:15:40.302Z,12.00
2018-11-12T02:18:09.093Z,11.80
2018-11-12T02:20:37.859Z,12.50
2018-11-12T02:23:06.638Z,12.30
2018-11-12T02:25:35.319Z,12.60
2018-11-12T02:28:04.073Z,11.80
2018-11-12T02:30:38.364Z,12.10
2018-11-12T02:33:07.206Z,11.70
2018-11-12T02:35:35.899Z,11.70
2018-11-12T02:38:04.638Z,12.00
2018-11-12T02:40:33.370Z,11.80
2018-11-12T02:43:02.077Z,11.70
2018-11-12T02:45:30.889Z,11.80
2018-11-12T02:47:59.650Z,12.20
2018-11-12T02:50:28.422Z,12.00
2018-11-12T02:52:57.230Z,12.10
2018-11-12T02:55:26.014Z,12.30
2018-11-12T02:57:54.773Z,11.90
2018-11-12T03:00:23.925Z,11.40
2018-11-12T03:02:52.713Z,11.30
2018-11-12T03:05:21.463Z,11.60
2018-11-12T03:07:50.245Z,11.20
2018-11-12T03:10:20.439Z,11.00
2018-11-12T03:12:49.166Z,10.90
2018-11-12T03:15:18.696Z,10.90
2018-11-12T03:17:48.011Z,10.90
2018-11-12T03:20:24.278Z,10.90
2018-11-12T03:22:53.794Z,10.60
2018-11-12T03:25:22.838Z,11.10
2018-11-12T03:27:52.525Z,11.10
2018-11-12T03:30:22.278Z,10.80
2018-11-12T03:32:51.867Z,11.00
2018-11-12T03:35:20.672Z,10.70
2018-11-12T03:37:50.178Z,10.80
2018-11-12T03:40:20.989Z,10.70
2018-11-12T03:42:50.376Z,11.00
2018-11-12T03:45:23.387Z,10.60
2018-11-12T03:47:52.209Z,10.40
2018-11-12T03:50:22.307Z,10.40
2018-11-12T03:52:51.062Z,10.40
2018-11-12T03:55:20.907Z,10.60
2018-11-12T03:57:49.683Z,10.40
2018-11-12T04:00:21.144Z,10.50
2018-11-12T04:02:49.802Z,10.70
2018-11-12T04:05:18.581Z,10.50
2018-11-12T04:07:47.375Z,10.50
2018-11-12T04:10:19.246Z,10.60
2018-11-12T04:12:48.010Z,10.50
2018-11-12T04:15:22.169Z,10.80
2018-11-12T04:17:50.928Z,10.60
2018-11-12T04:20:20.952Z,10.70
2018-11-12T04:23:06.433Z,10.50
2018-11-12T04:25:36.541Z,10.50
2018-11-12T04:28:05.509Z,10.40
2018-11-12T04:30:34.461Z,10.60
2018-11-12T04:33:03.323Z,10.50
2018-11-12T04:35:32.067Z,10.60
2018-11-12T04:38:01.265Z,10.40
2018-11-12T04:40:30.080Z,10.30
2018-11-12T04:42:58.967Z,10.30
2018-11-12T04:45:27.742Z,10.60
2018-11-12T04:47:56.485Z,10.40
2018-11-12T04:50:26.581Z,10.70
2018-11-12T04:52:55.557Z,10.40
2018-11-12T04:55:25.813Z,10.30
2018-11-12T04:57:54.438Z,10.30
2018-11-12T05:00:24.481Z,10.60
2018-11-12T05:02:53.309Z,10.80
2018-11-12T05:05:23.406Z,10.60
2018-11-12T05:07:52.379Z,11.00
2018-11-12T05:10:22.205Z,11.00
2018-11-12T05:12:51.621Z,11.40
2018-11-12T05:15:21.411Z,11.60
2018-11-12T05:17:50.113Z,11.60
2018-11-12T05:20:21.042Z,11.80
2018-11-12T05:22:49.829Z,11.80
2018-11-12T05:25:18.565Z,11.80
2018-11-12T05:27:47.238Z,11.90
2018-11-12T05:30:18.871Z,11.90
2018-11-12T05:32:47.713Z,11.90
2018-11-12T05:35:17.851Z,12.00
2018-11-12T05:37:46.662Z,12.00
2018-11-12T05:40:16.662Z,12.00
2018-11-12T05:42:45.397Z,11.90
2018-11-12T05:45:15.154Z,11.90
2018-11-12T05:54:41.408Z,10.80
2018-11-12T05:57:10.223Z,11.30
2018-11-12T05:59:38.970Z,11.60
2018-11-12T06:02:07.801Z,11.70
2018-11-12T06:04:36.567Z,11.80
2018-11-12T06:07:05.354Z,11.80
2018-11-12T06:09:34.153Z,11.80
2018-11-12T06:12:03.385Z,11.90
2018-11-12T06:14:32.081Z,11.90
2018-11-12T06:17:00.746Z,12.00
2018-11-12T06:19:29.489Z,11.90
2018-11-12T06:21:58.226Z,11.90
2018-11-12T06:24:26.930Z,12.00
2018-11-12T06:26:55.598Z,11.60
2018-11-12T06:29:24.286Z,11.70
2018-11-12T06:31:52.975Z,11.90
2018-11-12T06:34:21.649Z,11.90
2018-11-12T06:36:50.401Z,12.00
2018-11-12T06:39:19.439Z,12.00
2018-11-12T06:41:48.155Z,11.90
2018-11-12T06:44:16.926Z,12.00
2018-11-12T06:46:45.594Z,12.10
2018-11-12T06:49:15.097Z,12.10
2018-11-12T06:51:44.134Z,12.20
2018-11-12T06:54:12.912Z,12.20
2018-11-12T06:56:41.722Z,12.20
2018-11-12T06:59:10.489Z,12.00
2018-11-12T07:01:39.266Z,12.10
2018-11-12T07:04:08.058Z,12.10
2018-11-12T07:06:37.005Z,11.70
2018-11-12T07:09:08.446Z,10.60
2018-11-12T07:11:37.215Z,10.60
2018-11-12T07:14:05.904Z,10.80
2018-11-12T07:16:34.670Z,11.20
2018-11-12T07:19:03.599Z,11.20
2018-11-12T07:21:32.310Z,11.60
2018-11-12T07:24:01.218Z,11.40
2018-11-12T07:26:29.970Z,11.70
2018-11-12T07:28:58.673Z,12.00
2018-11-12T07:31:27.579Z,11.80
2018-11-12T07:33:56.246Z,11.90
2018-11-12T07:36:24.958Z,12.20
2018-11-12T07:38:53.835Z,12.10
2018-11-12T07:41:22.621Z,11.90
2018-11-12T07:43:51.544Z,11.90
2018-11-12T07:46:20.299Z,11.90
2018-11-12T07:48:49.171Z,11.90
2018-11-12T07:51:17.898Z,12.30
2018-11-12T07:53:46.575Z,12.10
2018-11-12T07:56:15.421Z,12.30
2018-11-12T07:58:44.045Z,12.20
2018-11-12T08:01:12.838Z,12.50
2018-11-12T08:03:41.666Z,12.40
2018-11-12T08:06:10.402Z,12.30
2018-11-12T08:08:39.177Z,12.60
2018-11-12T08:11:07.961Z,13.00
2018-11-12T08:13:36.695Z,12.80
2018-11-12T08:16:05.746Z,13.30
2018-11-12T08:18:34.529Z,12.90
2018-11-12T08:21:03.553Z,12.70
2018-11-12T08:23:32.210Z,13.20
2018-11-12T08:26:00.886Z,13.50
2018-11-12T08:28:29.593Z,13.30
2018-11-12T08:30:59.179Z,13.60
2018-11-12T08:33:28.033Z,13.60
2018-11-12T08:35:56.822Z,12.80
2018-11-12T08:38:26.374Z,13.30
2018-11-12T08:40:55.776Z,13.90
2018-11-12T08:43:24.670Z,14.50
2018-11-12T08:45:53.716Z,14.90
2018-11-12T08:48:22.490Z,15.20
2018-11-12T08:50:51.772Z,14.60
2018-11-12T08:53:20.542Z,14.00
2018-11-12T08:55:49.336Z,14.90
2018-11-12T08:58:18.836Z,14.10
2018-11-12T09:00:46.967Z,14.50
2018-11-12T09:03:15.690Z,13.90
2018-11-12T09:05:44.498Z,13.70
2018-11-12T09:08:13.250Z,14.60
2018-11-12T09:10:42.030Z,14.80
2018-11-12T09:13:10.731Z,14.80
2018-11-12T09:15:39.661Z,14.70
2018-11-12T09:18:08.419Z,14.50
2018-11-12T09:20:38.014Z,14.80
2018-11-12T09:23:06.803Z,14.50
2018-11-12T09:25:35.604Z,14.00
2018-11-12T09:28:04.586Z,14.10
2018-11-12T09:30:33.340Z,13.80
2018-11-12T09:33:02.043Z,13.80
2018-11-12T09:35:31.917Z,14.00
2018-11-12T09:38:01.993Z,13.90
2018-11-12T09:40:33.581Z,13.60
2018-11-12T09:43:02.334Z,14.10
2018-11-12T09:45:31.102Z,14.20
2018-11-12T09:48:00.064Z,14.40
2018-11-12T09:50:29.306Z,14.30
2018-11-12T09:52:59.132Z,14.60
2018-11-12T09:55:29.214Z,14.40
2018-11-12T09:57:59.478Z,14.50
2018-11-12T10:00:28.440Z,14.60
2018-11-12T10:02:57.962Z,15.00
2018-11-12T10:05:27.341Z,15.40
2018-11-12T10:07:59.150Z,16.10
2018-11-12T10:10:34.371Z,16.30
2018-11-12T10:13:03.605Z,17.00
2018-11-12T10:15:33.680Z,16.70
2018-11-12T10:18:02.362Z,16.50
2018-11-12T10:20:27.939Z,16.40
2018-11-12T10:22:56.745Z,16.60
2018-11-12T10:25:25.731Z,16.20
2018-11-12T10:27:55.307Z,15.70
2018-11-12T10:30:24.580Z,15.70
2018-11-12T10:32:53.797Z,16.20
2018-11-12T10:35:22.490Z,15.90
2018-11-12T10:37:51.206Z,16.10
2018-11-12T10:40:21.305Z,15.70
2018-11-12T10:42:50.306Z,15.40
2018-11-12T10:45:19.312Z,15.60
2018-11-12T10:47:49.322Z,15.60
2018-11-12T10:50:18.009Z,15.50
2018-11-12T10:52:46.790Z,15.20
2018-11-12T10:55:17.133Z,15.50
2018-11-12T10:57:46.566Z,15.50
2018-11-12T11:01:26.133Z,15.20
2018-11-12T11:04:00.360Z,15.00
2018-11-12T11:06:29.074Z,14.80
2018-11-12T11:08:57.827Z,15.00
2018-11-12T11:11:26.562Z,14.70
2018-11-12T11:13:55.398Z,14.50
2018-11-12T11:16:24.126Z,14.60
2018-11-12T11:18:53.821Z,14.60
2018-11-12T11:21:22.696Z,14.40
2018-11-12T11:23:51.369Z,14.50
2018-11-12T11:26:20.568Z,14.80
2018-11-12T11:28:50.159Z,14.60
2018-11-12T11:31:18.848Z,14.90
2018-11-12T11:33:47.747Z,15.00
2018-11-12T11:36:16.433Z,14.80
2018-11-12T11:38:45.179Z,14.90
2018-11-12T11:41:13.918Z,15.00
2018-11-12T11:43:42.673Z,14.80
2018-11-12T11:46:11.442Z,14.90
2018-11-12T11:48:40.458Z,15.20
2018-11-12T11:51:09.150Z,15.20
2018-11-12T11:53:37.849Z,15.10
2018-11-12T11:56:06.554Z,15.30
2018-11-12T11:58:35.325Z,14.90
2018-11-12T12:01:04.016Z,15.30
2018-11-12T12:03:32.694Z,15.30
2018-11-12T12:06:01.765Z,16.10
2018-11-12T12:08:30.501Z,16.30
2018-11-12T12:10:59.134Z,16.30
2018-11-12T12:13:27.867Z,16.70
2018-11-12T12:15:56.608Z,17.50
2018-11-12T12:18:25.292Z,17.90
2018-11-12T12:20:54.343Z,18.80
2018-11-12T12:23:23.167Z,20.00
2018-11-12T12:25:51.922Z,20.00
2018-11-12T12:28:20.546Z,20.30
2018-11-12T12:30:49.245Z,21.30
2018-11-12T12:33:17.914Z,21.20
2018-11-12T12:35:46.859Z,21.40
2018-11-12T12:38:15.856Z,20.60
2018-11-12T12:40:44.813Z,19.60
2018-11-12T12:43:13.675Z,19.10
2018-11-12T12:45:42.731Z,19.00
2018-11-12T12:48:11.596Z,18.80
2018-11-12T12:50:40.597Z,18.70
2018-11-12T12:53:09.534Z,18.20
2018-11-12T12:55:39.634Z,17.80
2018-11-12T12:58:08.473Z,18.30
2018-11-12T13:00:37.367Z,18.70
2018-11-12T13:03:06.373Z,18.70
2018-11-12T13:05:35.300Z,18.70
2018-11-12T13:08:04.179Z,18.20
2018-11-12T13:10:33.069Z,17.80
2018-11-12T13:13:01.959Z,18.00
2018-11-12T13:15:30.906Z,18.00
2018-11-12T13:17:59.839Z,19.70
2018-11-12T13:20:28.693Z,22.30
2018-11-12T13:22:57.600Z,23.60
2018-11-12T13:25:26.575Z,23.90
2018-11-12T13:27:55.489Z,23.90
2018-11-12T13:30:24.862Z,24.50
2018-11-12T13:32:53.847Z,24.90
2018-11-12T13:35:24.187Z,26.10
2018-11-12T13:37:53.015Z,24.30
2018-11-12T13:40:23.103Z,22.60
2018-11-12T13:42:55.657Z,21.80
2018-11-12T13:45:25.072Z,20.60
2018-11-12T13:47:54.263Z,20.10
2018-11-12T13:50:24.370Z,20.40
2018-11-12T13:52:53.786Z,19.80
2018-11-12T13:55:23.888Z,19.40
2018-11-12T13:57:52.884Z,18.90
2018-11-12T14:00:23.448Z,18.70
2018-11-12T14:02:52.972Z,18.60
2018-11-12T14:05:22.934Z,18.80
2018-11-12T14:07:51.780Z,20.20
2018-11-12T14:10:22.087Z,19.80
2018-11-12T14:12:51.859Z,20.50
2018-11-12T14:15:22.462Z,19.90
2018-11-12T14:17:51.694Z,19.50
2018-11-12T14:20:21.098Z,19.10
2018-11-12T14:22:49.970Z,18.80
2018-11-12T14:25:19.687Z,18.80
2018-11-12T14:27:50.069Z,19.10
2018-11-12T14:30:22.385Z,19.00
2018-11-12T14:32:51.374Z,18.80
2018-11-12T14:35:20.312Z,17.60
2018-11-12T14:37:49.195Z,17.20
2018-11-12T14:40:18.899Z,17.30
2018-11-12T14:42:47.954Z,16.70
2018-11-12T14:45:18.330Z,16.60
2018-11-12T14:47:47.386Z,16.40
2018-11-12T14:50:16.326Z,16.00
2018-11-12T14:52:45.401Z,15.80
2018-11-12T14:55:15.419Z,15.60
2018-11-12T14:57:44.343Z,15.40
2018-11-12T15:00:17.025Z,15.30
2018-11-12T15:02:45.958Z,15.40
2018-11-12T15:05:15.576Z,15.30
2018-11-12T15:07:44.515Z,14.90
2018-11-12T15:10:14.150Z,14.90
2018-11-12T15:12:43.677Z,14.90
2018-11-12T15:15:12.992Z,14.70
2018-11-12T15:17:42.078Z,15.10
2018-11-12T15:20:13.698Z,15.00
2018-11-12T15:22:42.717Z,14.80
2018-11-12T15:25:14.871Z,15.10
2018-11-12T15:27:45.328Z,14.80
2018-11-12T15:30:15.682Z,14.70
2018-11-12T15:32:45.949Z,15.00
2018-11-12T15:35:15.035Z,14.80
2018-11-12T15:37:44.815Z,14.90
2018-11-12T15:40:14.174Z,14.70
2018-11-12T15:42:43.207Z,14.90
2018-11-12T15:45:15.719Z,14.50
2018-11-12T15:47:45.406Z,14.60
2018-11-12T15:50:20.792Z,14.60
2018-11-12T15:52:49.674Z,14.50
2018-11-12T15:55:19.144Z,14.50
2018-11-12T15:57:48.337Z,14.50
2018-11-12T16:00:17.556Z,14.40
2018-11-12T16:02:46.468Z,14.40
2018-11-12T16:05:15.521Z,14.40
2018-11-12T16:07:44.448Z,14.40
2018-11-12T16:10:17.038Z,14.20
2018-11-12T16:12:46.184Z,14.30
2018-11-12T16:15:16.507Z,14.30
2018-11-12T16:17:45.475Z,14.40
2018-11-12T16:20:18.627Z,14.30
2018-11-12T16:22:48.335Z,14.20
2018-11-12T16:25:18.039Z,14.30
2018-11-12T16:27:46.939Z,14.30
2018-11-12T16:30:15.896Z,14.10
2018-11-12T16:32:45.518Z,14.20
2018-11-12T16:35:16.579Z,14.00
2018-11-12T16:37:46.247Z,14.00
2018-11-12T16:40:15.244Z,14.00
2018-11-12T16:42:45.155Z,13.80
2018-11-12T16:45:14.698Z,13.70
2018-11-12T16:47:43.990Z,13.70
2018-11-12T16:50:13.770Z,13.70
2018-11-12T16:52:42.666Z,13.70
2018-11-12T16:55:14.462Z,13.50
2018-11-12T16:57:43.562Z,13.60
2018-11-12T17:00:14.249Z,13.50
2018-11-12T17:02:43.539Z,13.70
2018-11-12T17:05:13.771Z,13.70
2018-11-12T17:07:42.671Z,13.70
2018-11-12T17:10:14.503Z,13.70
2018-11-12T17:12:44.367Z,13.70
2018-11-12T17:15:13.839Z,13.70
2018-11-12T17:17:42.835Z,13.60
2018-11-12T17:20:13.159Z,13.80
2018-11-12T17:22:42.110Z,13.80
2018-11-12T17:25:12.261Z,13.80
2018-11-12T17:27:41.554Z,13.80
2018-11-12T17:30:16.262Z,13.70
2018-11-12T17:32:45.699Z,13.70
2018-11-12T17:35:15.839Z,13.60
2018-11-12T17:37:44.731Z,13.70
2018-11-12T17:40:21.577Z,13.70
2018-11-12T17:42:51.191Z,13.70
2018-11-12T17:45:21.508Z,13.60
2018-11-12T17:47:51.327Z,13.60
2018-11-12T17:50:20.290Z,13.60
2018-11-12T17:52:49.248Z,13.60
2018-11-12T17:55:18.123Z,13.40
2018-11-12T17:57:47.023Z,13.40
2018-11-12T18:00:22.182Z,13.40
2018-11-12T18:02:51.174Z,13.20
2018-11-12T18:05:20.138Z,13.20
2018-11-12T18:07:49.133Z,13.10
2018-11-12T18:10:18.502Z,13.00
2018-11-12T18:12:47.435Z,13.10
2018-11-12T18:15:17.609Z,13.10
2018-11-12T18:17:46.534Z,13.10
2018-11-12T18:20:22.394Z,13.00
2018-11-12T18:22:52.183Z,13.10
2018-11-12T18:26:24.466Z,13.10
2018-11-12T18:28:53.370Z,12.90
2018-11-12T18:31:22.350Z,13.00
2018-11-12T18:33:51.268Z,13.10
2018-11-12T18:36:20.115Z,12.90
2018-11-12T18:38:49.038Z,13.00
2018-11-12T18:41:17.916Z,13.10
2018-11-12T18:43:46.832Z,13.00
2018-11-12T18:46:15.666Z,13.00
2018-11-12T18:48:45.471Z,13.10
2018-11-12T18:51:15.074Z,13.00
2018-11-12T18:53:44.026Z,12.70
2018-11-12T18:56:12.914Z,12.90
2018-11-12T18:58:41.849Z,12.80
2018-11-12T19:01:10.827Z,12.70
2018-11-12T19:03:39.790Z,12.90
2018-11-12T19:06:08.688Z,12.60
2018-11-12T19:08:37.627Z,12.40
2018-11-12T19:11:06.799Z,12.60
2018-11-12T19:13:35.782Z,12.40
2018-11-12T19:16:04.847Z,12.50
2018-11-12T19:18:33.690Z,12.30
2018-11-12T19:21:02.638Z,12.30
2018-11-12T19:23:32.006Z,12.40
2018-11-12T19:26:00.881Z,12.30
2018-11-12T19:28:29.835Z,12.20
2018-11-12T19:37:53.454Z,12.00
2018-11-12T19:40:23.873Z,12.20
2018-11-12T19:42:54.174Z,12.00
2018-11-12T19:45:23.386Z,12.10
2018-11-12T19:47:52.890Z,12.20
2018-11-12T19:50:23.115Z,12.30
2018-11-12T19:52:53.394Z,12.10
2018-11-12T19:55:22.228Z,12.00
2018-11-12T19:57:51.210Z,12.00
2018-11-12T20:00:21.642Z,11.90
2018-11-12T20:02:51.802Z,12.00
2018-11-12T20:05:20.753Z,12.00
2018-11-12T20:07:49.699Z,12.00
2018-11-12T20:10:19.877Z,12.00
2018-11-12T20:12:48.846Z,12.10
2018-11-12T20:15:19.186Z,12.10
2018-11-12T20:17:49.017Z,12.20
2018-11-12T20:20:20.694Z,12.30
2018-11-12T20:22:49.841Z,12.20
2018-11-12T20:25:19.515Z,12.00
2018-11-12T20:27:49.062Z,12.10
2018-11-12T20:30:25.503Z,12.10
2018-11-12T20:32:54.620Z,11.90
2018-11-12T20:35:23.552Z,12.00
2018-11-12T20:37:53.063Z,12.00
2018-11-12T20:40:21.978Z,11.80
2018-11-12T20:42:51.016Z,12.00
2018-11-12T20:45:21.173Z,11.90
2018-11-12T20:47:51.271Z,11.80
2018-11-12T20:50:20.210Z,11.90
2018-11-12T20:52:49.199Z,11.90
2018-11-12T20:55:18.629Z,11.70
2018-11-12T20:57:47.772Z,11.90
2018-11-12T21:00:26.292Z,11.70
2018-11-12T21:02:55.549Z,11.90
2018-11-12T21:05:27.600Z,11.70
2018-11-12T21:07:56.598Z,11.70
2018-11-12T21:10:25.553Z,11.80
2018-11-12T21:12:54.495Z,11.70
2018-11-12T21:15:24.295Z,11.80
2018-11-12T21:17:53.297Z,12.00
2018-11-12T21:20:23.409Z,11.80
2018-11-12T21:22:52.613Z,11.80
2018-11-12T21:25:22.723Z,11.90
2018-11-12T21:27:51.749Z,12.00
2018-11-12T21:30:21.943Z,12.00
2018-11-12T21:32:50.922Z,12.10
2018-11-12T21:35:19.892Z,12.00
2018-11-12T21:37:50.090Z,12.00
2018-11-12T21:40:21.507Z,12.10
2018-11-12T21:42:50.444Z,12.00
2018-11-12T21:45:20.805Z,12.20
2018-11-12T21:47:49.741Z,12.50
2018-11-12T21:50:19.827Z,12.50
2018-11-12T21:52:48.710Z,12.80
2018-11-12T21:55:17.839Z,12.50
2018-11-12T21:57:46.803Z,12.60
2018-11-12T22:00:20.092Z,12.60
2018-11-12T22:02:50.435Z,12.70
2018-11-12T22:05:19.311Z,12.70
2018-11-12T22:07:48.298Z,12.70
2018-11-12T22:10:17.877Z,12.70
2018-11-12T22:12:48.145Z,12.70
2018-11-12T22:15:17.043Z,12.80
2018-11-12T22:17:45.951Z,12.90
2018-11-12T22:20:16.018Z,12.70
2018-11-12T22:22:45.123Z,12.70
2018-11-12T22:25:15.356Z,12.90
2018-11-12T22:27:44.709Z,13.20
2018-11-12T22:30:15.234Z,13.40
2018-11-12T22:32:45.364Z,12.90
2018-11-12T22:35:15.016Z,13.10
2018-11-12T22:37:44.482Z,13.10
2018-11-12T22:40:14.318Z,13.10
2018-11-12T22:42:44.099Z,13.20
2018-11-12T22:45:15.914Z,13.10
2018-11-12T22:47:45.659Z,13.20
2018-11-12T22:50:15.486Z,13.50
2018-11-12T22:52:45.091Z,13.40
2018-11-12T22:55:15.195Z,13.60
2018-11-12T22:57:44.138Z,13.20
2018-11-12T23:00:21.993Z,13.40
2018-11-12T23:02:51.102Z,13.50
2018-11-12T23:05:20.499Z,13.20
2018-11-12T23:07:49.890Z,13.40
2018-11-12T23:10:19.411Z,13.30
2018-11-12T23:12:48.397Z,13.20
2018-11-12T23:15:17.895Z,13.50
2018-11-12T23:17:46.815Z,13.40
2018-11-12T23:20:18.130Z,13.10
2018-11-12T23:22:47.786Z,13.00
2018-11-12T23:25:16.670Z,12.80
2018-11-12T23:27:46.238Z,13.10
2018-11-12T23:30:16.356Z,12.90
2018-11-12T23:32:45.320Z,13.00
2018-11-12T23:35:15.469Z,13.20
2018-11-12T23:37:44.879Z,12.90
2018-11-12T23:40:14.064Z,13.10
2018-11-12T23:42:43.674Z,12.90
2018-11-12T23:45:12.594Z,12.90
2018-11-12T23:47:41.487Z,13.10
2018-11-12T23:50:14.498Z,13.10
2018-11-12T23:52:44.046Z,13.10
2018-11-12T23:55:13.450Z,12.60
2018-11-12T23:57:42.442Z,12.70
